Time;durP1;ratioP1;P1;durP2;ratioP2;P2;SDS_P1;SDS_P2;PMS_P1;PMS_P2;Temp;Humidity;BMP_temperature;BMP_pressure;BME280_temperature;BME280_humidity;BME280_pressure;Samples;Min_cycle;Max_cycle;Signal;HPM_P1;HPM_P2
2024/01/07 00:00:00;;;;;;;;;;;0.30;99.90;;;;;;5030859;28;20460;-75
2024/01/07 00:02:25;;;;;;;;;;;0.30;99.90;;;;;;5047891;28;19972;-74
2024/01/07 00:04:51;;;;;;;;;;;0.20;99.90;;;;;;5048882;28;19928;-75
2024/01/07 00:07:16;;;;;;;;;;;0.90;99.90;;;;;;5046905;28;19921;-74
2024/01/07 00:09:42;;;;;;;;;;;0.30;99.90;;;;;;5041794;28;19952;-74
2024/01/07 00:12:08;;;;;;;;;;;0.20;99.90;;;;;;5045588;28;19924;-75
2024/01/07 00:14:33;;;;;;;;;;;0.20;99.90;;;;;;5044157;28;19983;-74
2024/01/07 00:16:59;;;;;;;;;;;1.10;99.90;;;;;;5047082;28;19943;-74
2024/01/07 00:19:24;;;;;;;;;;;0.20;99.90;;;;;;5049210;28;19917;-75
2024/01/07 00:21:50;;;;;;;;;;;0.20;99.90;;;;;;5045322;28;19929;-75
2024/01/07 00:24:15;;;;;;;;;;;0.20;99.90;;;;;;5048480;28;20115;-74
2024/01/07 00:26:41;;;;;;;;;;;0.20;99.90;;;;;;5042407;28;20440;-74
2024/01/07 00:29:07;;;;;;;;;;;0.20;99.90;;;;;;5035937;28;20400;-74
2024/01/07 00:31:32;;;;;;;;;;;0.20;99.90;;;;;;5043301;28;19964;-74
2024/01/07 00:33:58;;;;;;;;;;;0.20;99.90;;;;;;5044613;28;19935;-74
2024/01/07 00:36:23;;;;;;;;;;;1.20;99.90;;;;;;5032053;28;19932;-74
2024/01/07 00:38:49;;;;;;;;;;;0.20;99.90;;;;;;5042050;28;20325;-74
2024/01/07 00:41:14;;;;;;;;;;;0.20;99.90;;;;;;5047034;28;19921;-74
2024/01/07 00:43:40;;;;;;;;;;;0.20;99.90;;;;;;5029897;28;19963;-74
2024/01/07 00:46:06;;;;;;;;;;;0.20;99.90;;;;;;5052221;28;19921;-74
2024/01/07 00:48:31;;;;;;;;;;;0.20;99.90;;;;;;5040570;28;19928;-74
2024/01/07 00:50:57;;;;;;;;;;;0.20;99.90;;;;;;5039042;28;19927;-73
2024/01/07 00:53:22;;;;;;;;;;;0.20;99.90;;;;;;5045471;28;19921;-74
2024/01/07 00:55:48;;;;;;;;;;;0.20;99.90;;;;;;5048408;28;20015;-74
2024/01/07 00:58:14;;;;;;;;;;;0.20;99.90;;;;;;5045979;28;19921;-74
2024/01/07 01:00:39;;;;;;;;;;;0.20;99.90;;;;;;5042786;28;19975;-74
2024/01/07 01:03:05;;;;;;;;;;;0.20;99.90;;;;;;5046469;28;19924;-74
2024/01/07 01:05:30;;;;;;;;;;;0.20;99.90;;;;;;5048299;28;20418;-75
2024/01/07 01:07:56;;;;;;;;;;;0.20;99.90;;;;;;5047707;28;19921;-74
2024/01/07 01:10:21;;;;;;;;;;;0.20;99.90;;;;;;5036471;28;19925;-74
2024/01/07 01:12:47;;;;;;;;;;;0.20;99.90;;;;;;5045299;28;19930;-74
2024/01/07 01:15:13;;;;;;;;;;;0.30;99.90;;;;;;5046680;28;19920;-74
2024/01/07 01:17:41;;;;;;;;;;;0.20;99.90;;;;;;5040141;28;20382;-74
2024/01/07 01:20:07;;;;;;;;;;;0.30;99.90;;;;;;5048327;28;19921;-74
2024/01/07 01:22:32;;;;;;;;;;;0.20;99.90;;;;;;5046586;28;19921;-74
2024/01/07 01:24:58;;;;;;;;;;;0.20;99.90;;;;;;5047045;28;19924;-74
2024/01/07 01:27:24;;;;;;;;;;;0.40;99.90;;;;;;5047089;28;19921;-75
2024/01/07 01:29:49;;;;;;;;;;;0.20;99.90;;;;;;5045317;28;19943;-74
2024/01/07 01:32:15;;;;;;;;;;;0.60;99.90;;;;;;5043979;28;20295;-74
2024/01/07 01:34:40;;;;;;;;;;;0.20;99.90;;;;;;5046901;28;20133;-74
2024/01/07 01:37:08;;;;;;;;;;;0.20;99.90;;;;;;5042828;28;19927;-74
2024/01/07 01:39:33;;;;;;;;;;;0.20;99.90;;;;;;5042476;28;19982;-74
2024/01/07 01:41:59;;;;;;;;;;;0.20;99.90;;;;;;5046679;28;19920;-74
2024/01/07 01:44:27;;;;;;;;;;;0.70;99.90;;;;;;5047105;28;19928;-74
2024/01/07 01:46:52;;;;;;;;;;;0.10;99.90;;;;;;5046777;28;20011;-74
2024/01/07 01:49:18;;;;;;;;;;;0.70;99.90;;;;;;5048579;28;20435;-74
2024/01/07 01:51:43;;;;;;;;;;;0.40;99.90;;;;;;5048144;28;20406;-74
2024/01/07 01:54:10;;;;;;;;;;;0.10;99.90;;;;;;5045581;28;20208;-74
2024/01/07 01:56:35;;;;;;;;;;;0.10;99.90;;;;;;5045082;28;19920;-74
2024/01/07 01:59:01;;;;;;;;;;;0.20;99.90;;;;;;5049899;28;19924;-74
2024/01/07 02:01:26;;;;;;;;;;;0.10;99.90;;;;;;5047154;28;20276;-74
2024/01/07 02:03:53;;;;;;;;;;;0.90;99.90;;;;;;5043746;28;19921;-73
2024/01/07 02:06:19;;;;;;;;;;;0.10;99.90;;;;;;5038144;28;19925;-73
2024/01/07 02:08:45;;;;;;;;;;;0.10;99.90;;;;;;5047456;28;20439;-73
2024/01/07 02:11:17;;;;;;;;;;;0.10;99.90;;;;;;5040912;28;20015;-74
2024/01/07 02:13:43;;;;;;;;;;;0.10;99.90;;;;;;5030984;28;19927;-74
2024/01/07 02:16:08;;;;;;;;;;;0.10;99.90;;;;;;5026254;28;20311;-74
2024/01/07 02:18:34;;;;;;;;;;;0.00;99.90;;;;;;5032297;28;19921;-74
2024/01/07 02:21:00;;;;;;;;;;;0.00;99.90;;;;;;5029417;28;19931;-74
2024/01/07 02:23:25;;;;;;;;;;;0.00;99.90;;;;;;5029658;28;20464;-73
2024/01/07 02:25:51;;;;;;;;;;;0.00;99.90;;;;;;5029739;28;19921;-74
2024/01/07 02:28:16;;;;;;;;;;;0.00;99.90;;;;;;5019380;28;20442;-74
2024/01/07 02:30:42;;;;;;;;;;;0.00;99.90;;;;;;5025967;28;20373;-75
2024/01/07 02:33:08;;;;;;;;;;;0.00;99.90;;;;;;5019436;28;20455;-75
2024/01/07 02:35:33;;;;;;;;;;;0.00;99.90;;;;;;5030431;28;19921;-75
2024/01/07 02:37:59;;;;;;;;;;;0.00;99.90;;;;;;5056151;28;19925;-74
2024/01/07 02:40:24;;;;;;;;;;;0.20;99.90;;;;;;5027761;28;20023;-74
2024/01/07 02:42:50;;;;;;;;;;;0.00;99.90;;;;;;5021800;28;20019;-74
2024/01/07 02:45:15;;;;;;;;;;;0.00;99.90;;;;;;5025623;28;19928;-75
2024/01/07 02:47:41;;;;;;;;;;;0.00;99.90;;;;;;5028249;28;19927;-74
2024/01/07 02:50:07;;;;;;;;;;;0.00;99.90;;;;;;5020534;28;19928;-74
2024/01/07 02:52:32;;;;;;;;;;;0.00;99.90;;;;;;5028863;28;19924;-74
2024/01/07 02:54:58;;;;;;;;;;;0.10;99.90;;;;;;5030099;28;19975;-75
2024/01/07 02:57:24;;;;;;;;;;;1.60;99.90;;;;;;5028955;28;19921;-75
2024/01/07 02:59:50;;;;;;;;;;;0.00;99.90;;;;;;5028222;28;19931;-75
2024/01/07 03:02:15;;;;;;;;;;;0.20;99.90;;;;;;5023550;28;19926;-75
2024/01/07 03:04:41;;;;;;;;;;;0.10;99.90;;;;;;5050518;28;19920;-75
2024/01/07 03:07:06;;;;;;;;;;;0.70;99.90;;;;;;5027968;28;19924;-74
2024/01/07 03:09:32;;;;;;;;;;;0.00;99.90;;;;;;5027822;28;20004;-74
2024/01/07 03:11:57;;;;;;;;;;;0.00;99.90;;;;;;5047261;28;20007;-73
2024/01/07 03:14:23;;;;;;;;;;;0.00;99.90;;;;;;5036618;28;20352;-74
2024/01/07 03:16:48;;;;;;;;;;;0.00;99.90;;;;;;5045404;28;20388;-74
2024/01/07 03:19:14;;;;;;;;;;;0.10;99.90;;;;;;5049573;28;20314;-73
2024/01/07 03:21:39;;;;;;;;;;;0.10;99.90;;;;;;5053195;28;19920;-74
2024/01/07 03:24:05;;;;;;;;;;;0.10;99.90;;;;;;5052267;28;19963;-73
2024/01/07 03:26:32;;;;;;;;;;;0.10;99.90;;;;;;5053933;28;19920;-73
2024/01/07 03:28:59;;;;;;;;;;;0.00;99.90;;;;;;5069826;28;20322;-73
2024/01/07 03:31:25;;;;;;;;;;;0.10;99.90;;;;;;5054899;28;20276;-73
2024/01/07 03:33:51;;;;;;;;;;;0.00;99.90;;;;;;5053778;28;19927;-73
2024/01/07 03:36:16;;;;;;;;;;;0.00;99.90;;;;;;5054173;28;19924;-74
2024/01/07 03:38:42;;;;;;;;;;;0.00;99.90;;;;;;5053199;28;19927;-73
2024/01/07 03:41:08;;;;;;;;;;;0.40;99.90;;;;;;5051002;28;20332;-73
2024/01/07 03:43:34;;;;;;;;;;;0.00;99.90;;;;;;5053966;28;19983;-73
2024/01/07 03:46:00;;;;;;;;;;;0.10;99.90;;;;;;5048307;28;19920;-73
2024/01/07 03:48:26;;;;;;;;;;;0.00;99.90;;;;;;5063751;28;19921;-74
2024/01/07 03:50:51;;;;;;;;;;;0.10;99.90;;;;;;5046243;28;19920;-74
2024/01/07 03:53:17;;;;;;;;;;;2.20;99.90;;;;;;5087551;28;19921;-73
2024/01/07 03:55:42;;;;;;;;;;;0.00;99.90;;;;;;5052433;28;19924;-74
2024/01/07 03:58:08;;;;;;;;;;;0.80;99.90;;;;;;5050983;28;20048;-73
2024/01/07 04:00:34;;;;;;;;;;;0.00;99.90;;;;;;5084370;28;19924;-74
2024/01/07 04:03:00;;;;;;;;;;;-0.10;99.90;;;;;;5051303;28;19931;-74
2024/01/07 04:05:26;;;;;;;;;;;-0.30;99.90;;;;;;5053771;28;20170;-73
2024/01/07 04:07:52;;;;;;;;;;;0.00;99.90;;;;;;5049094;28;19924;-73
2024/01/07 04:10:18;;;;;;;;;;;-0.10;99.90;;;;;;5059638;28;19928;-73
2024/01/07 04:12:44;;;;;;;;;;;-0.10;99.90;;;;;;5068083;28;19928;-73
2024/01/07 04:15:11;;;;;;;;;;;0.00;99.90;;;;;;5050236;28;20577;-74
2024/01/07 04:17:37;;;;;;;;;;;0.00;99.90;;;;;;5048283;28;20489;-74
2024/01/07 04:20:02;;;;;;;;;;;0.00;99.90;;;;;;5052204;28;19984;-73
2024/01/07 04:22:28;;;;;;;;;;;0.00;99.90;;;;;;5053088;28;19921;-73
2024/01/07 04:24:53;;;;;;;;;;;-0.10;99.90;;;;;;5051206;28;19927;-73
2024/01/07 04:27:19;;;;;;;;;;;-0.30;99.90;;;;;;5050122;28;19921;-73
2024/01/07 04:29:44;;;;;;;;;;;0.10;99.90;;;;;;5035098;28;19920;-73
2024/01/07 04:32:10;;;;;;;;;;;0.20;99.90;;;;;;5037758;28;20320;-73
2024/01/07 04:34:35;;;;;;;;;;;0.10;99.90;;;;;;5039537;28;19920;-74
2024/01/07 04:37:01;;;;;;;;;;;0.60;99.90;;;;;;5032580;28;19921;-74
2024/01/07 04:39:26;;;;;;;;;;;0.20;99.90;;;;;;5047501;28;19929;-74
2024/01/07 04:41:52;;;;;;;;;;;-0.30;99.90;;;;;;5051538;28;19969;-75
2024/01/07 04:44:17;;;;;;;;;;;-0.30;99.90;;;;;;5048068;28;20402;-74
2024/01/07 04:46:43;;;;;;;;;;;0.00;99.90;;;;;;5051063;28;19952;-74
2024/01/07 04:49:09;;;;;;;;;;;0.00;99.90;;;;;;5051769;28;19966;-74
2024/01/07 04:51:36;;;;;;;;;;;0.50;99.90;;;;;;5052173;28;19924;-74
2024/01/07 04:54:02;;;;;;;;;;;0.10;99.90;;;;;;5071873;28;19924;-75
2024/01/07 04:56:27;;;;;;;;;;;0.10;99.90;;;;;;5051919;28;20284;-75
2024/01/07 04:58:53;;;;;;;;;;;0.30;99.90;;;;;;5046227;28;19943;-74
2024/01/07 05:01:18;;;;;;;;;;;0.70;99.90;;;;;;5052450;28;20010;-75
2024/01/07 05:03:44;;;;;;;;;;;1.70;99.90;;;;;;5049628;28;19920;-75
2024/01/07 05:06:10;;;;;;;;;;;0.50;99.90;;;;;;5052295;28;19986;-73
2024/01/07 05:08:36;;;;;;;;;;;-0.20;99.90;;;;;;5053524;28;19921;-73
2024/01/07 05:11:01;;;;;;;;;;;-0.10;99.90;;;;;;5046179;28;19921;-74
2024/01/07 05:13:27;;;;;;;;;;;-0.10;99.90;;;;;;5032497;28;19921;-73
2024/01/07 05:15:56;;;;;;;;;;;0.00;99.90;;;;;;5062091;28;19927;-74
2024/01/07 05:18:25;;;;;;;;;;;-0.10;99.90;;;;;;5048377;28;20167;-74
2024/01/07 05:20:51;;;;;;;;;;;0.00;99.90;;;;;;5046805;28;19924;-73
2024/01/07 05:23:16;;;;;;;;;;;0.40;99.90;;;;;;5046953;28;19974;-74
2024/01/07 05:25:42;;;;;;;;;;;2.20;99.90;;;;;;5072196;28;20426;-73
2024/01/07 05:28:08;;;;;;;;;;;0.30;99.90;;;;;;5063887;28;20006;-74
2024/01/07 05:30:37;;;;;;;;;;;0.00;99.90;;;;;;5047589;28;19932;-73
2024/01/07 05:33:02;;;;;;;;;;;-0.10;99.90;;;;;;5040754;28;19924;-74
2024/01/07 05:35:28;;;;;;;;;;;0.00;99.90;;;;;;5050550;28;19923;-72
2024/01/07 05:37:53;;;;;;;;;;;-0.10;99.90;;;;;;5041011;28;19920;-73
2024/01/07 05:40:19;;;;;;;;;;;0.40;99.90;;;;;;5044169;28;19966;-73
2024/01/07 05:42:44;;;;;;;;;;;0.30;99.90;;;;;;5039855;28;19927;-73
2024/01/07 05:45:10;;;;;;;;;;;-0.10;99.90;;;;;;5046587;28;20083;-72
2024/01/07 05:47:35;;;;;;;;;;;-0.10;99.90;;;;;;5050617;28;19920;-72
2024/01/07 05:50:02;;;;;;;;;;;-0.10;99.90;;;;;;5049060;28;20334;-73
2024/01/07 05:52:27;;;;;;;;;;;-0.10;99.90;;;;;;5046071;28;20387;-73
2024/01/07 05:54:53;;;;;;;;;;;-0.10;99.90;;;;;;5049702;28;19921;-73
2024/01/07 05:57:19;;;;;;;;;;;-0.10;99.90;;;;;;5058882;28;19928;-73
2024/01/07 05:59:45;;;;;;;;;;;0.00;99.90;;;;;;5044887;28;19921;-73
2024/01/07 06:02:10;;;;;;;;;;;-0.10;99.90;;;;;;5048396;28;19928;-73
2024/01/07 06:04:39;;;;;;;;;;;-0.10;99.90;;;;;;5050966;28;20296;-73
2024/01/07 06:07:04;;;;;;;;;;;-0.10;99.90;;;;;;5045602;28;20366;-73
2024/01/07 06:09:30;;;;;;;;;;;0.00;99.90;;;;;;5078155;28;19924;-74
2024/01/07 06:11:55;;;;;;;;;;;-0.10;99.90;;;;;;5048345;28;20374;-73
2024/01/07 06:14:22;;;;;;;;;;;0.00;99.90;;;;;;5067014;28;19920;-73
2024/01/07 06:16:48;;;;;;;;;;;-0.10;99.90;;;;;;5063670;28;20006;-73
2024/01/07 06:19:14;;;;;;;;;;;-0.10;99.90;;;;;;5043516;28;20027;-73
2024/01/07 06:21:40;;;;;;;;;;;-0.10;99.90;;;;;;5049058;28;19924;-73
2024/01/07 06:24:07;;;;;;;;;;;0.00;99.90;;;;;;5050282;28;19927;-73
2024/01/07 06:26:33;;;;;;;;;;;-0.10;99.90;;;;;;5065175;28;19966;-73
2024/01/07 06:28:58;;;;;;;;;;;0.00;99.90;;;;;;5046141;28;19925;-74
2024/01/07 06:31:24;;;;;;;;;;;0.20;99.90;;;;;;5048052;28;19948;-73
2024/01/07 06:33:49;;;;;;;;;;;0.00;99.90;;;;;;5049470;28;20280;-72
2024/01/07 06:36:15;;;;;;;;;;;0.00;99.90;;;;;;5044076;28;20010;-72
2024/01/07 06:38:40;;;;;;;;;;;-0.10;99.90;;;;;;5049138;28;20294;-72
2024/01/07 06:41:06;;;;;;;;;;;-0.10;99.90;;;;;;5034671;28;19943;-72
2024/01/07 06:43:32;;;;;;;;;;;-0.10;99.90;;;;;;5046589;28;19925;-73
2024/01/07 06:45:57;;;;;;;;;;;-0.10;99.90;;;;;;5037232;28;20010;-73
2024/01/07 06:48:23;;;;;;;;;;;-0.10;99.90;;;;;;5046792;28;20019;-73
2024/01/07 06:50:48;;;;;;;;;;;-0.10;99.90;;;;;;5048813;28;19968;-73
2024/01/07 06:53:14;;;;;;;;;;;0.20;99.90;;;;;;5043344;28;19920;-73
2024/01/07 06:55:40;;;;;;;;;;;;;;;;;;5049624;28;19924;-73
2024/01/07 06:58:05;;;;;;;;;;;-0.30;99.90;;;;;;5052514;28;20015;-73
2024/01/07 07:00:31;;;;;;;;;;;-0.10;99.90;;;;;;5052961;28;19928;-73
2024/01/07 07:02:57;;;;;;;;;;;-0.20;99.90;;;;;;5046061;28;19921;-73
2024/01/07 07:05:22;;;;;;;;;;;-0.20;99.90;;;;;;5050421;28;19952;-74
2024/01/07 07:07:48;;;;;;;;;;;0.20;99.90;;;;;;5044253;28;19921;-73
2024/01/07 07:10:13;;;;;;;;;;;-0.30;99.90;;;;;;5051511;28;19921;-74
2024/01/07 07:12:39;;;;;;;;;;;-0.20;99.90;;;;;;5051176;28;20414;-73
2024/01/07 07:15:05;;;;;;;;;;;-0.30;99.90;;;;;;5058999;28;19925;-73
2024/01/07 07:17:30;;;;;;;;;;;-0.30;99.90;;;;;;5048731;28;19920;-73
2024/01/07 07:19:56;;;;;;;;;;;-0.40;99.90;;;;;;5052299;28;19924;-73
2024/01/07 07:22:21;;;;;;;;;;;-0.40;99.90;;;;;;5047781;28;20374;-73
2024/01/07 07:24:47;;;;;;;;;;;-0.50;99.90;;;;;;5049226;28;19990;-73
2024/01/07 07:27:12;;;;;;;;;;;-0.50;99.90;;;;;;5050676;28;19921;-73
2024/01/07 07:29:38;;;;;;;;;;;-0.50;99.90;;;;;;5060002;28;19924;-73
2024/01/07 07:32:04;;;;;;;;;;;-0.50;99.90;;;;;;5053052;28;20493;-73
2024/01/07 07:34:30;;;;;;;;;;;;;;;;;;5048227;28;19924;-72
2024/01/07 07:36:55;;;;;;;;;;;-0.60;99.90;;;;;;5051556;28;20043;-72
2024/01/07 07:39:21;;;;;;;;;;;-0.60;99.90;;;;;;5043682;28;20282;-73
2024/01/07 07:41:48;;;;;;;;;;;-0.70;99.90;;;;;;5053901;28;19971;-73
2024/01/07 07:44:13;;;;;;;;;;;-0.30;99.90;;;;;;5050051;28;19921;-72
2024/01/07 07:46:39;;;;;;;;;;;-0.50;99.90;;;;;;5051151;28;19931;-73
2024/01/07 07:49:04;;;;;;;;;;;-0.90;99.90;;;;;;5051420;28;20303;-71
2024/01/07 07:51:30;;;;;;;;;;;-0.80;99.90;;;;;;5050461;28;20304;-72
2024/01/07 07:53:56;;;;;;;;;;;0.00;99.90;;;;;;5053113;28;20402;-72
2024/01/07 07:56:22;;;;;;;;;;;-0.40;99.90;;;;;;5057227;28;20292;-72
2024/01/07 07:58:48;;;;;;;;;;;-0.50;99.90;;;;;;5051510;28;19928;-72
2024/01/07 08:01:14;;;;;;;;;;;0.00;99.90;;;;;;5049930;28;19993;-73
2024/01/07 08:03:39;;;;;;;;;;;-0.60;99.90;;;;;;5036299;28;20018;-72
2024/01/07 08:06:05;;;;;;;;;;;-0.30;99.90;;;;;;5045381;28;19920;-72
2024/01/07 08:08:30;;;;;;;;;;;-0.50;99.90;;;;;;5048033;28;19921;-72
2024/01/07 08:10:56;;;;;;;;;;;-0.50;99.90;;;;;;5046187;28;19921;-73
2024/01/07 08:13:21;;;;;;;;;;;-0.50;99.90;;;;;;5050695;28;20011;-73
2024/01/07 08:15:47;;;;;;;;;;;-0.40;99.90;;;;;;5063235;28;20398;-73
2024/01/07 08:18:13;;;;;;;;;;;-0.40;99.90;;;;;;5051397;28;19921;-72
2024/01/07 08:20:40;;;;;;;;;;;-0.40;99.90;;;;;;5048402;28;20418;-73
2024/01/07 08:23:05;;;;;;;;;;;-0.30;99.90;;;;;;5051589;28;19985;-73
2024/01/07 08:25:32;;;;;;;;;;;-0.30;99.90;;;;;;5049189;28;20005;-73
2024/01/07 08:27:57;;;;;;;;;;;-0.30;99.90;;;;;;5040825;28;19975;-73
2024/01/07 08:30:23;;;;;;;;;;;-0.30;99.90;;;;;;5040384;28;19971;-72
2024/01/07 08:32:49;;;;;;;;;;;-0.30;99.90;;;;;;5041356;28;20020;-73
2024/01/07 08:35:14;;;;;;;;;;;-0.30;99.90;;;;;;5047373;28;20376;-73
2024/01/07 08:37:40;;;;;;;;;;;-0.30;99.90;;;;;;5046240;28;19935;-73
2024/01/07 08:40:09;;;;;;;;;;;-0.20;99.90;;;;;;5048846;28;19922;-73
2024/01/07 08:42:35;;;;;;;;;;;-0.20;99.90;;;;;;5051366;28;20015;-73
2024/01/07 08:45:00;;;;;;;;;;;-0.20;99.90;;;;;;5051504;28;19921;-72
2024/01/07 08:47:26;;;;;;;;;;;-0.20;99.90;;;;;;5049045;28;19928;-73
2024/01/07 08:49:53;;;;;;;;;;;-0.20;99.90;;;;;;5043757;28;19950;-73
2024/01/07 08:52:19;;;;;;;;;;;1.50;99.90;;;;;;5051775;28;19916;-73
2024/01/07 08:54:45;;;;;;;;;;;-0.10;99.90;;;;;;5050865;28;19927;-73
2024/01/07 08:57:10;;;;;;;;;;;-0.10;99.90;;;;;;5052764;28;19920;-73
2024/01/07 08:59:36;;;;;;;;;;;1.10;99.90;;;;;;5050900;28;19968;-73
2024/01/07 09:02:02;;;;;;;;;;;0.00;99.90;;;;;;5051479;28;20007;-73
2024/01/07 09:04:28;;;;;;;;;;;0.00;99.90;;;;;;5069075;28;19920;-73
2024/01/07 09:06:53;;;;;;;;;;;0.00;99.90;;;;;;5051393;28;19920;-73
2024/01/07 09:09:19;;;;;;;;;;;0.10;99.90;;;;;;5050015;28;19927;-72
2024/01/07 09:11:45;;;;;;;;;;;0.10;99.90;;;;;;5048570;28;19924;-72
2024/01/07 09:14:11;;;;;;;;;;;0.10;99.90;;;;;;5042480;28;20300;-73
2024/01/07 09:16:36;;;;;;;;;;;0.10;99.90;;;;;;5051724;28;19921;-72
2024/01/07 09:19:02;;;;;;;;;;;0.10;99.90;;;;;;5050740;28;20429;-72
2024/01/07 09:21:27;;;;;;;;;;;0.20;99.90;;;;;;5046960;28;20284;-73
2024/01/07 09:23:53;;;;;;;;;;;0.20;99.90;;;;;;5051506;28;20010;-72
2024/01/07 09:26:18;;;;;;;;;;;0.20;99.90;;;;;;5051093;28;19931;-73
2024/01/07 09:28:44;;;;;;;;;;;0.20;99.90;;;;;;5047527;28;19920;-74
2024/01/07 09:31:10;;;;;;;;;;;0.20;99.90;;;;;;5043103;28;19929;-74
2024/01/07 09:33:35;;;;;;;;;;;1.20;99.90;;;;;;5032898;28;19921;-74
2024/01/07 09:36:01;;;;;;;;;;;0.30;99.90;;;;;;5044784;28;19927;-74
2024/01/07 09:38:26;;;;;;;;;;;0.30;99.90;;;;;;5046067;28;20276;-73
2024/01/07 09:40:53;;;;;;;;;;;0.30;99.90;;;;;;5049426;28;20287;-73
2024/01/07 09:43:19;;;;;;;;;;;0.50;99.90;;;;;;5049469;28;19921;-74
2024/01/07 09:45:46;;;;;;;;;;;0.40;99.90;;;;;;5051275;28;19920;-74
2024/01/07 09:48:11;;;;;;;;;;;0.40;99.90;;;;;;5048985;28;20414;-73
2024/01/07 09:50:37;;;;;;;;;;;0.40;99.90;;;;;;5050196;28;20007;-73
2024/01/07 09:53:06;;;;;;;;;;;0.40;99.90;;;;;;5049596;28;20406;-72
2024/01/07 09:55:47;;;;;;;;;;;0.40;99.90;;;;;;5049492;28;19931;-73
2024/01/07 09:58:13;;;;;;;;;;;0.50;99.90;;;;;;5048800;28;19920;-73
2024/01/07 10:00:39;;;;;;;;;;;0.50;99.90;;;;;;5051270;28;19923;-72
2024/01/07 10:03:05;;;;;;;;;;;0.60;99.90;;;;;;5051180;28;20264;-73
2024/01/07 10:05:30;;;;;;;;;;;0.60;99.90;;;;;;5049220;28;19921;-73
2024/01/07 10:07:57;;;;;;;;;;;0.60;99.90;;;;;;5051576;28;20026;-73
2024/01/07 10:10:23;;;;;;;;;;;0.60;99.90;;;;;;5049659;28;20368;-73
2024/01/07 10:12:48;;;;;;;;;;;0.60;99.90;;;;;;5047422;28;19921;-73
2024/01/07 10:15:14;;;;;;;;;;;0.70;99.90;;;;;;5051259;28;19926;-73
2024/01/07 10:17:42;;;;;;;;;;;0.70;99.90;;;;;;5048315;28;19958;-71
2024/01/07 10:20:09;;;;;;;;;;;0.70;99.90;;;;;;5039106;28;19980;-71
2024/01/07 10:22:36;;;;;;;;;;;0.80;99.90;;;;;;5046031;28;20387;-71
2024/01/07 10:25:02;;;;;;;;;;;0.80;99.90;;;;;;5048964;28;19963;-71
2024/01/07 10:27:28;;;;;;;;;;;0.80;99.90;;;;;;5049553;28;20396;-71
2024/01/07 10:29:55;;;;;;;;;;;0.80;99.90;;;;;;5048341;28;19925;-71
2024/01/07 10:32:20;;;;;;;;;;;0.80;99.90;;;;;;5038234;28;19924;-71
2024/01/07 10:34:49;;;;;;;;;;;0.80;99.90;;;;;;5043216;28;19943;-71
2024/01/07 10:37:14;;;;;;;;;;;0.80;99.90;;;;;;5048428;28;19924;-70
2024/01/07 10:39:40;;;;;;;;;;;0.80;99.90;;;;;;5049653;28;20014;-71
2024/01/07 10:42:06;;;;;;;;;;;0.80;99.90;;;;;;5049098;28;19920;-71
2024/01/07 10:44:32;;;;;;;;;;;0.80;99.90;;;;;;5048981;28;20326;-71
2024/01/07 10:46:58;;;;;;;;;;;0.90;99.90;;;;;;5046563;28;19929;-71
2024/01/07 10:49:25;;;;;;;;;;;1.00;99.90;;;;;;5048981;28;19920;-71
2024/01/07 10:51:56;;;;;;;;;;;1.00;99.90;;;;;;5041466;28;19924;-71
2024/01/07 10:54:23;;;;;;;;;;;2.70;99.90;;;;;;5047768;28;19920;-71
2024/01/07 10:56:50;;;;;;;;;;;1.30;99.90;;;;;;5066745;28;19927;-71
2024/01/07 10:59:16;;;;;;;;;;;1.50;99.90;;;;;;5048177;28;19924;-72
2024/01/07 11:01:43;;;;;;;;;;;2.40;99.90;;;;;;5049620;28;19921;-72
2024/01/07 11:04:14;;;;;;;;;;;4.80;99.90;;;;;;5046404;28;19921;-72
2024/01/07 11:06:46;;;;;;;;;;;6.10;99.90;;;;;;5048763;28;19924;-71
2024/01/07 11:09:26;;;;;;;;;;;5.20;99.90;;;;;;5044485;28;20375;-72
2024/01/07 11:11:52;;;;;;;;;;;4.90;99.90;;;;;;5043108;28;19945;-71
2024/01/07 11:14:37;;;;;;;;;;;4.60;99.90;;;;;;5046378;28;20367;-71
2024/01/07 11:17:03;;;;;;;;;;;4.30;99.90;;;;;;5067269;28;20017;-72
2024/01/07 11:19:29;;;;;;;;;;;4.00;99.90;;;;;;5049362;28;20010;-71
2024/01/07 11:22:13;;;;;;;;;;;3.90;99.90;;;;;;5042164;28;20023;-72
2024/01/07 11:24:39;;;;;;;;;;;3.80;99.90;;;;;;5039104;28;20350;-72
2024/01/07 11:27:04;;;;;;;;;;;4.00;99.90;;;;;;5049162;28;19925;-72
2024/01/07 11:29:31;;;;;;;;;;;3.50;99.90;;;;;;5045266;28;19925;-72
2024/01/07 11:31:57;;;;;;;;;;;3.80;99.90;;;;;;5040462;28;19970;-72
2024/01/07 11:34:39;;;;;;;;;;;3.30;99.90;;;;;;5065990;28;20253;-75
2024/01/07 11:37:07;;;;;;;;;;;3.10;99.90;;;;;;5048982;28;19927;-72
2024/01/07 11:39:35;;;;;;;;;;;3.10;99.90;;;;;;5044032;28;19946;-72
2024/01/07 11:42:02;;;;;;;;;;;3.00;99.90;;;;;;5044465;28;20364;-72
2024/01/07 11:44:27;;;;;;;;;;;3.00;99.90;;;;;;5047372;28;19927;-72
2024/01/07 11:46:53;;;;;;;;;;;3.00;99.90;;;;;;5041442;28;19920;-72
2024/01/07 11:49:18;;;;;;;;;;;2.90;99.90;;;;;;5043859;28;19970;-72
2024/01/07 11:51:45;;;;;;;;;;;3.20;99.90;;;;;;5048656;28;19920;-72
2024/01/07 11:54:11;;;;;;;;;;;2.80;99.90;;;;;;5044668;28;19916;-72
2024/01/07 11:56:37;;;;;;;;;;;2.80;99.90;;;;;;5040854;28;19989;-71
2024/01/07 11:59:03;;;;;;;;;;;2.80;99.90;;;;;;5051451;28;19931;-72
2024/01/07 12:01:29;;;;;;;;;;;3.20;99.90;;;;;;5044577;28;19916;-73
2024/01/07 12:03:54;;;;;;;;;;;3.90;99.90;;;;;;5048030;28;20281;-72
2024/01/07 12:06:20;;;;;;;;;;;5.30;99.90;;;;;;5050862;28;20011;-72
2024/01/07 12:08:46;;;;;;;;;;;7.00;99.90;;;;;;5051199;28;20371;-72
2024/01/07 12:11:12;;;;;;;;;;;8.20;99.90;;;;;;5047300;28;19935;-72
2024/01/07 12:13:38;;;;;;;;;;;9.10;99.90;;;;;;5041376;28;19979;-72
2024/01/07 12:16:04;;;;;;;;;;;10.40;99.90;;;;;;5050783;28;19986;-74
2024/01/07 12:18:31;;;;;;;;;;;11.70;99.90;;;;;;5074256;28;19924;-71
2024/01/07 12:20:58;;;;;;;;;;;12.80;99.90;;;;;;5050941;28;19959;-69
2024/01/07 12:23:24;;;;;;;;;;;13.70;99.90;;;;;;5042753;28;20023;-69
2024/01/07 12:25:49;;;;;;;;;;;13.70;99.90;;;;;;5067018;28;19931;-70
2024/01/07 12:28:17;;;;;;;;;;;13.10;99.90;;;;;;5046839;28;19928;-70
2024/01/07 12:30:42;;;;;;;;;;;12.50;99.90;;;;;;5045913;28;19920;-69
2024/01/07 12:33:08;;;;;;;;;;;12.00;99.90;;;;;;5043502;28;20272;-70
2024/01/07 12:35:34;;;;;;;;;;;11.70;99.90;;;;;;5052908;28;19920;-70
2024/01/07 12:38:00;;;;;;;;;;;11.40;99.90;;;;;;5052449;28;19924;-70
2024/01/07 12:40:26;;;;;;;;;;;11.60;99.90;;;;;;5051251;28;20428;-70
2024/01/07 12:42:52;;;;;;;;;;;12.20;99.90;;;;;;5064927;28;20054;-70
2024/01/07 12:45:18;;;;;;;;;;;12.30;99.90;;;;;;5069753;28;20011;-70
2024/01/07 12:47:44;;;;;;;;;;;11.60;99.90;;;;;;5051857;28;20291;-70
2024/01/07 12:50:10;;;;;;;;;;;10.60;99.90;;;;;;5051701;28;19924;-70
2024/01/07 12:52:37;;;;;;;;;;;9.60;99.90;;;;;;5047318;28;20006;-70
2024/01/07 12:55:02;;;;;;;;;;;8.70;99.90;;;;;;5050219;28;20007;-70
2024/01/07 12:57:28;;;;;;;;;;;7.80;99.90;;;;;;5045683;28;20312;-70
2024/01/07 12:59:54;;;;;;;;;;;7.00;99.90;;;;;;5050870;28;19927;-70
2024/01/07 13:02:19;;;;;;;;;;;6.40;99.90;;;;;;5048729;28;19929;-68
2024/01/07 13:04:46;;;;;;;;;;;5.60;99.90;;;;;;5052668;28;19920;-71
2024/01/07 13:07:11;;;;;;;;;;;4.90;99.90;;;;;;5051859;28;19928;-71
2024/01/07 13:09:37;;;;;;;;;;;4.60;99.90;;;;;;5043149;28;19921;-69
2024/01/07 13:12:04;;;;;;;;;;;5.10;99.90;;;;;;5061300;28;20303;-70
2024/01/07 13:14:29;;;;;;;;;;;4.10;99.90;;;;;;5033997;28;20021;-71
2024/01/07 13:16:55;;;;;;;;;;;3.80;99.90;;;;;;5029839;28;19952;-70
2024/01/07 13:19:21;;;;;;;;;;;3.90;99.90;;;;;;5050338;28;19928;-69
2024/01/07 13:21:46;;;;;;;;;;;3.40;99.90;;;;;;5049932;28;20318;-70
2024/01/07 13:24:12;;;;;;;;;;;3.30;99.90;;;;;;5046945;28;19927;-69
2024/01/07 13:26:37;;;;;;;;;;;3.10;99.90;;;;;;5046552;28;19974;-70
2024/01/07 13:29:03;;;;;;;;;;;3.00;99.90;;;;;;5040965;28;19925;-70
2024/01/07 13:31:29;;;;;;;;;;;2.90;99.90;;;;;;5031377;28;20136;-70
2024/01/07 13:33:55;;;;;;;;;;;2.70;99.90;;;;;;5033667;28;19960;-70
2024/01/07 13:36:20;;;;;;;;;;;2.60;99.90;;;;;;5033905;28;19920;-70
2024/01/07 13:38:49;;;;;;;;;;;2.60;99.90;;;;;;5032972;28;19921;-70
2024/01/07 13:41:15;;;;;;;;;;;2.50;99.90;;;;;;5035217;28;19920;-72
2024/01/07 13:43:41;;;;;;;;;;;2.50;99.90;;;;;;5046706;28;20370;-72
2024/01/07 13:46:06;;;;;;;;;;;2.40;99.90;;;;;;5035449;28;20023;-71
2024/01/07 13:48:32;;;;;;;;;;;2.30;99.90;;;;;;5048279;28;19972;-71
2024/01/07 13:50:58;;;;;;;;;;;2.20;99.90;;;;;;5046739;28;19924;-71
2024/01/07 13:53:23;;;;;;;;;;;2.10;99.90;;;;;;5048723;28;19921;-71
2024/01/07 13:55:49;;;;;;;;;;;2.00;99.90;;;;;;5048670;28;19925;-71
2024/01/07 13:58:15;;;;;;;;;;;1.90;99.90;;;;;;5042317;28;19925;-72
2024/01/07 14:00:41;;;;;;;;;;;1.80;99.90;;;;;;5047670;28;19921;-72
2024/01/07 14:03:07;;;;;;;;;;;3.40;99.90;;;;;;5039778;28;20281;-71
2024/01/07 14:05:32;;;;;;;;;;;1.70;99.90;;;;;;5034291;28;19954;-71
2024/01/07 14:07:58;;;;;;;;;;;1.60;99.90;;;;;;5048405;28;19975;-72
2024/01/07 14:10:23;;;;;;;;;;;1.60;99.90;;;;;;5046349;28;19920;-71
2024/01/07 14:12:49;;;;;;;;;;;1.50;99.90;;;;;;5038261;28;19972;-73
2024/01/07 14:15:17;;;;;;;;;;;1.50;99.90;;;;;;5050456;28;19920;-71
2024/01/07 14:17:43;;;;;;;;;;;1.40;99.90;;;;;;5049641;28;19963;-71